Airfield :
LOGIN :

Register | Disclaimer

   EN    FR    IT 

 










Legend :    VFR   Marginal VFR   IFR   Intensive IFR   Very Intensive IFR
Visi :
Ceiling :
>= 8 km
>= 3000ft
5 to 8 km
1000 to 3000 ft
1500m to 5 km
500 to 1000 ft
800 to 1500m
200 to 500 ft
< 800m
< 200 ft
Symbols :   Thunderstorms  Fog  Heavy snow  Heavy precipitations  Wind > 20 kt
SIGMETs :     Misc.  Thunderstorms  Icing  Turbulence  Mountain Waves  Volcanic Ashes







- Airport Elevation : 240 ft
- IATA code : VLC


LEVC - Valencia Manises

CURRENT METAR :
  • 210700Z 27003KT 9999 SCT050 17/16 Q1022 NOSIG

EXPIRED METARs :
  • 210630Z 00000KT 9999 SCT040 SCT060 17/16 Q1022 NOSIG
  • 210600Z VRB01KT 9999 BKN040 SCT050 18/16 Q1022 NOSIG
  • 210530Z 29003KT 260V320 9999 BKN045 17/16 Q1021 NOSIG
  • 210500Z 33003KT 260V050 9999 BKN045 18/16 Q1022 NOSIG
  • 210430Z 31004KT 9999 BKN045 18/16 Q1021 NOSIG

TAF TAF LEVC
Valid from the 21 at 06:00 until the 22 at 06:00 UTC


210500Z 2106/2206 03007KT 9999 FEW020 SCT030 TX23/2112Z TN15/2106Z
TEMPO 2106/2109 FEW025TCU
PROB30
TEMPO 2106/2108 4000 TSRA BKN015 SCT020CB
BECMG 2116/2118 VRB03KT
No reported NOTAMs for that airfield.
1 SIGMET reported for the Barcelona FIR (LECB) :
 
Severe turbulence
LECB SIGMET 2 VALID 210600/211000 LEVA
LECB BARCELONA UIR SEV TURB FCST N OF LINE N4201 E00037 - N4103 E00433 FL270/320 MOV S 10KT NC=



MET'MAP, your aeronautical weather chart ! - Copyright ORBIFLY December 2007 - Disclaimer

ORBIFLY MET'MAP TEAM :

Programming & Development : Alexandra Zaïnal
Concept & Development : Baudouin d'Aumeries
Co-Development & Prog : Marc-Olivier Méhu
Technical & hardware support : Manuel Goepfert

Contact : metmap@orbifly.com




SOURCES & CREDITS :

   NOAA